createdAt,value
2019-01-24T05:03:52.345Z,-3.664551
2019-01-24T05:07:20.242Z,-3.634338
2019-01-24T05:10:48.139Z,-3.624268
2019-01-24T05:14:16.023Z,-3.624268
2019-01-24T05:17:43.927Z,-3.604126
2019-01-24T05:21:11.827Z,-3.624268
2019-01-24T05:24:39.733Z,-3.634338
2019-01-24T05:28:07.632Z,-3.624268
2019-01-24T05:31:35.527Z,-3.553772
2019-01-24T05:35:03.557Z,-3.553772
2019-01-24T05:38:32.489Z,-3.52356
2019-01-24T05:42:01.497Z,-3.513489
2019-01-24T05:45:29.394Z,-3.52356
2019-01-24T05:48:57.289Z,-3.52356
2019-01-24T05:52:25.199Z,-3.52356
2019-01-24T05:55:53.347Z,-3.513489
2019-01-24T05:59:21.253Z,-3.513489
2019-01-24T06:02:49.148Z,-3.543701
2019-01-24T06:06:17.045Z,-3.52356
2019-01-24T06:09:44.939Z,-3.513489
2019-01-24T06:13:12.841Z,-3.513489
2019-01-24T06:16:40.734Z,-3.513489
2019-01-24T06:20:08.614Z,-3.52356
2019-01-24T06:23:37.068Z,-3.543701
2019-01-24T06:27:04.961Z,-3.573914
2019-01-24T06:30:32.849Z,-3.573914
2019-01-24T06:34:00.750Z,-3.543701
2019-01-24T06:37:28.657Z,-3.543701
2019-01-24T06:40:56.541Z,-3.573914
2019-01-24T06:44:24.437Z,-3.624268
2019-01-24T06:47:52.339Z,-3.634338
2019-01-24T06:51:20.233Z,-3.674622
2019-01-24T06:54:48.135Z,-3.765259
2019-01-24T06:58:16.040Z,-3.845825
2019-01-24T07:01:43.926Z,-3.916321
2019-01-24T07:05:11.828Z,-3.956604
2019-01-24T07:08:39.733Z,-4.017029
2019-01-24T07:12:07.632Z,-4.057312
2019-01-24T07:15:35.504Z,-4.067383
2019-01-24T07:19:03.406Z,-4.097595
2019-01-24T07:22:31.308Z,-4.137878
2019-01-24T07:25:59.189Z,-4.117737
2019-01-24T07:29:27.091Z,-4.147949
2019-01-24T07:32:54.996Z,-4.228516
2019-01-24T07:36:23.899Z,-4.238586
2019-01-24T07:39:51.810Z,-4.238586
2019-01-24T07:43:19.715Z,-4.208374
2019-01-24T07:46:47.598Z,-4.248657
2019-01-24T07:50:16.500Z,-4.248657
2019-01-24T07:53:44.394Z,-4.248657
2019-01-24T07:57:12.486Z,-4.208374
2019-01-24T08:00:41.381Z,-4.248657
2019-01-24T08:04:09.297Z,-4.248657
2019-01-24T08:07:37.241Z,-4.238586
2019-01-24T08:11:05.129Z,-4.208374
2019-01-24T08:14:33.042Z,-4.137878
2019-01-24T08:18:00.948Z,-4.117737
2019-01-24T08:21:28.846Z,-3.936462
2019-01-24T08:24:56.757Z,-3.765259
2019-01-24T08:28:24.671Z,-3.674622
2019-01-24T08:31:52.579Z,-3.604126
2019-01-24T08:35:20.490Z,-3.594055
2019-01-24T08:38:48.389Z,-3.52356
2019-01-24T08:42:16.278Z,-3.473206
2019-01-24T08:45:44.192Z,-3.412781
2019-01-24T08:49:12.102Z,-3.302002
2019-01-24T08:52:39.999Z,-3.201294
2019-01-24T08:56:07.895Z,-3.090515
2019-01-24T08:59:35.806Z,-3.050232
2019-01-24T09:03:03.701Z,-3.009949
2019-01-24T09:06:31.611Z,-2.969666
2019-01-24T09:09:59.516Z,-2.919312
2019-01-24T09:13:27.426Z,-2.89917
2019-01-24T09:16:55.313Z,-2.89917
2019-01-24T09:20:24.214Z,-2.879028
2019-01-24T09:23:52.113Z,-2.868958
2019-01-24T09:27:20.013Z,-2.798462
2019-01-24T09:30:47.920Z,-2.717896
2019-01-24T09:34:15.830Z,-2.637329
2019-01-24T09:37:43.713Z,-2.516479
2019-01-24T09:41:11.631Z,-2.486267
2019-01-24T09:44:39.530Z,-2.445984
2019-01-24T09:48:07.423Z,-2.506409
2019-01-24T09:51:35.323Z,-2.506409
2019-01-24T09:55:04.215Z,-2.476196
2019-01-24T09:58:32.097Z,-2.425842
2019-01-24T10:02:00.980Z,-2.335205
2019-01-24T10:05:28.880Z,-2.164001
2019-01-24T10:08:57.755Z,-2.033081
2019-01-24T10:12:26.721Z,-1.861877
2019-01-24T10:15:54.624Z,-1.861877
2019-01-24T10:19:23.500Z,-1.882019
2019-01-24T10:22:51.418Z,-1.720886
2019-01-24T10:26:20.303Z,-1.549683
2019-01-24T10:29:49.189Z,-1.408691
2019-01-24T10:33:17.067Z,-1.307983
2019-01-24T10:36:44.949Z,-1.096497
2019-01-24T10:40:12.836Z,-0.552673
2019-01-24T10:43:40.710Z,0.021362
2019-01-24T10:47:08.597Z,0.655823
2019-01-24T10:50:36.481Z,1.300354
2019-01-24T10:54:04.346Z,0.837097
2019-01-24T10:57:32.240Z,0.99823
2019-01-24T11:01:00.125Z,0.87738
2019-01-24T11:04:28.006Z,0.414124
2019-01-24T11:07:55.897Z,0.353699
2019-01-24T11:11:23.992Z,0.353699
2019-01-24T11:14:51.867Z,0.293274
2019-01-24T11:18:19.759Z,0.504761
2019-01-24T11:21:47.655Z,0.837097
2019-01-24T11:25:16.517Z,0.796814
2019-01-24T11:28:44.411Z,1.179504
2019-01-24T11:32:12.321Z,1.260071
2019-01-24T11:35:40.203Z,1.491699
2019-01-24T11:39:08.068Z,1.844177
2019-01-24T11:42:35.961Z,1.995239
2019-01-24T11:46:04.838Z,2.166443
2019-01-24T11:49:32.715Z,2.116089
2019-01-24T11:53:00.604Z,2.388
2019-01-24T11:56:29.486Z,2.357788
2019-01-24T11:59:58.346Z,2.428284
2019-01-24T12:03:26.236Z,2.357788
2019-01-24T12:06:54.124Z,2.055664
2019-01-24T12:10:24.965Z,1.914673
2019-01-24T12:13:52.877Z,1.87439
2019-01-24T12:17:20.768Z,2.035522
2019-01-24T12:20:48.647Z,2.186584
2019-01-24T12:24:16.552Z,2.287292
2019-01-24T12:27:44.439Z,2.055664
2019-01-24T12:31:12.314Z,1.844177
2019-01-24T12:34:40.207Z,1.773682
2019-01-24T12:38:08.105Z,1.824036
2019-01-24T12:41:36.035Z,1.773682
2019-01-24T12:45:03.931Z,1.642761
2019-01-24T12:48:31.821Z,1.592407
2019-01-24T12:51:59.713Z,1.350708
2019-01-24T12:55:28.583Z,1.451416
2019-01-24T12:58:56.478Z,1.179504
2019-01-24T13:02:24.370Z,1.088867
2019-01-24T13:05:52.239Z,1.028442
2019-01-24T13:09:20.123Z,1.018372
2019-01-24T13:12:48.009Z,0.978088
2019-01-24T13:16:15.884Z,0.957947
2019-01-24T13:19:43.772Z,0.736389
2019-01-24T13:23:11.670Z,0.504761
2019-01-24T13:26:39.543Z,0.404053
2019-01-24T13:30:07.430Z,0.333557
2019-01-24T13:33:35.320Z,0.444336
2019-01-24T13:37:04.193Z,0.353699
2019-01-24T13:40:33.076Z,0.081787
2019-01-24T13:44:00.966Z,0.021362
2019-01-24T13:47:29.833Z,-0.059204
2019-01-24T13:50:57.825Z,-0.069275
2019-01-24T13:54:25.716Z,-0.159912
2019-01-24T13:57:54.950Z,-0.220337
2019-01-24T14:01:22.822Z,-0.310974
2019-01-24T14:04:50.737Z,-0.572815
2019-01-24T14:08:18.627Z,-0.733948
2019-01-24T14:11:46.495Z,-0.824585
2019-01-24T14:15:14.388Z,-0.854797
2019-01-24T14:18:43.266Z,-0.965576
2019-01-24T14:22:11.135Z,-1.126709
2019-01-24T14:25:39.040Z,-1.277771
2019-01-24T14:29:06.929Z,-1.438904
2019-01-24T14:32:35.917Z,-1.459045
2019-01-24T14:36:03.790Z,-1.509399
2019-01-24T14:39:31.695Z,-1.620178
2019-01-24T14:42:59.593Z,-1.64032
2019-01-24T14:46:27.479Z,-1.690674
2019-01-24T14:49:55.361Z,-1.821594
2019-01-24T14:53:23.291Z,-1.912231
2019-01-24T14:56:51.134Z,-1.932373
2019-01-24T15:00:20.008Z,-1.851807
2019-01-24T15:03:47.898Z,-1.791382
2019-01-24T15:07:15.774Z,-1.781311
2019-01-24T15:10:43.718Z,-1.801453
2019-01-24T15:14:12.979Z,-1.831665
2019-01-24T15:17:40.480Z,-1.831665
2019-01-24T15:21:08.364Z,-1.851807
2019-01-24T15:24:36.280Z,-1.972656
2019-01-24T15:28:04.186Z,-2.033081
2019-01-24T15:31:32.051Z,-2.123718
2019-01-24T15:34:59.948Z,-2.184143
2019-01-24T15:38:27.842Z,-2.224426
2019-01-24T15:41:56.675Z,-2.335205
2019-01-24T15:45:24.584Z,-2.345276
2019-01-24T15:48:53.260Z,-2.425842
2019-01-24T15:52:21.143Z,-2.506409
2019-01-24T15:55:50.025Z,-2.607117
2019-01-24T15:59:18.923Z,-2.627258
2019-01-24T16:02:46.809Z,-2.627258
2019-01-24T16:06:14.708Z,-2.586975
2019-01-24T16:09:42.593Z,-2.536621
2019-01-24T16:13:10.474Z,-2.506409
2019-01-24T16:16:38.390Z,-2.425842
2019-01-24T16:20:06.252Z,-2.345276
2019-01-24T16:23:34.125Z,-2.325134
2019-01-24T16:27:03.012Z,-2.304993
2019-01-24T16:30:31.894Z,-2.445984
2019-01-24T16:33:59.782Z,-2.486267
2019-01-24T16:37:27.679Z,-2.556763
2019-01-24T16:40:55.565Z,-2.586975
2019-01-24T16:44:24.452Z,-2.637329
2019-01-24T16:47:53.328Z,-2.667542
2019-01-24T16:51:21.674Z,-2.717896
2019-01-24T16:54:49.126Z,-2.818604
2019-01-24T16:58:17.032Z,-2.89917
2019-01-24T17:01:44.952Z,-2.919312
2019-01-24T17:05:13.832Z,-3.009949
2019-01-24T17:08:41.733Z,-3.060303
2019-01-24T17:12:09.647Z,-3.060303
2019-01-24T17:15:37.555Z,-3.050232
2019-01-24T17:19:08.661Z,-3.02002
2019-01-24T17:22:36.309Z,-3.090515
2019-01-24T17:26:05.186Z,-3.15094
2019-01-24T17:29:33.057Z,-3.261719
2019-01-24T17:33:00.951Z,-3.312073
2019-01-24T17:36:28.842Z,-3.382568
2019-01-24T17:39:56.718Z,-3.342285
2019-01-24T17:43:24.603Z,-3.382568
2019-01-24T17:46:52.536Z,-3.422852
2019-01-24T17:50:20.409Z,-3.473206
2019-01-24T17:53:49.315Z,-3.483276
2019-01-24T17:57:17.227Z,-3.473206
2019-01-24T18:00:46.096Z,-3.483276
2019-01-24T18:04:13.984Z,-3.52356
2019-01-24T18:07:44.855Z,-3.493347
2019-01-24T18:11:12.791Z,-3.513489
2019-01-24T18:14:40.673Z,-3.513489
2019-01-24T18:18:08.566Z,-3.483276
2019-01-24T18:21:36.478Z,-3.513489
2019-01-24T18:25:05.351Z,-3.594055
2019-01-24T18:28:33.252Z,-3.634338
2019-01-24T18:32:01.127Z,-3.664551
2019-01-24T18:35:29.028Z,-3.735046
2019-01-24T18:38:56.959Z,-3.735046
2019-01-24T18:42:24.850Z,-3.7854
2019-01-24T18:45:52.745Z,-3.765259
2019-01-24T18:49:20.636Z,-3.674622
2019-01-24T18:52:48.613Z,-3.815613
2019-01-24T18:56:16.502Z,-3.845825
2019-01-24T18:59:44.393Z,-3.886108
2019-01-24T19:03:12.285Z,-3.936462
2019-01-24T19:06:40.177Z,-3.90625
2019-01-24T19:10:08.067Z,-3.876038
2019-01-24T19:13:35.958Z,-4.017029
2019-01-24T19:17:03.844Z,-4.0271
2019-01-24T19:20:32.728Z,-4.017029
2019-01-24T19:24:00.732Z,-3.986816
2019-01-24T19:27:29.545Z,-3.986816
2019-01-24T19:30:57.437Z,-3.986816
2019-01-24T19:34:26.324Z,-4.0271
2019-01-24T19:37:54.198Z,-4.067383
2019-01-24T19:41:22.105Z,-4.057312
2019-01-24T19:44:50.001Z,-4.087524
2019-01-24T19:48:17.873Z,-4.087524
2019-01-24T19:51:45.774Z,-4.067383
2019-01-24T19:55:14.653Z,-4.097595
2019-01-24T19:58:42.528Z,-4.057312
2019-01-24T20:02:10.432Z,-4.0271
2019-01-24T20:05:38.328Z,-3.996887
2019-01-24T20:09:06.218Z,-4.017029
2019-01-24T20:12:34.125Z,-4.0271
2019-01-24T20:16:02.149Z,-4.017029
2019-01-24T20:19:30.096Z,-3.936462
2019-01-24T20:22:58.117Z,-3.845825
2019-01-24T20:26:26.997Z,-3.886108
2019-01-24T20:29:54.965Z,-3.886108
2019-01-24T20:33:23.924Z,-3.916321
2019-01-24T20:36:52.130Z,-3.90625
2019-01-24T20:40:20.166Z,-3.916321
2019-01-24T20:43:48.414Z,-3.996887
2019-01-24T20:47:16.413Z,-3.956604
2019-01-24T20:50:45.497Z,-3.986816
2019-01-24T20:54:13.384Z,-3.956604
2019-01-24T20:57:41.299Z,-4.017029
2019-01-24T21:01:09.193Z,-4.057312
2019-01-24T21:04:37.147Z,-4.067383
2019-01-24T21:08:05.037Z,-4.097595
2019-01-24T21:11:32.929Z,-4.147949
2019-01-24T21:15:00.802Z,-4.117737
2019-01-24T21:18:28.686Z,-4.117737
2019-01-24T21:21:56.597Z,-4.137878
2019-01-24T21:25:25.488Z,-4.137878
2019-01-24T21:28:53.366Z,-4.168091
2019-01-24T21:32:21.254Z,-4.117737
2019-01-24T21:35:49.143Z,-4.168091
2019-01-24T21:39:22.127Z,-4.178162
2019-01-24T21:42:47.888Z,-4.178162
2019-01-24T21:46:15.777Z,-4.168091
2019-01-24T21:49:43.651Z,-4.097595
2019-01-24T21:53:11.545Z,-4.057312
2019-01-24T21:56:40.416Z,-4.057312
2019-01-24T22:00:08.290Z,-4.057312
2019-01-24T22:03:36.183Z,-4.097595
2019-01-24T22:07:04.080Z,-4.087524
2019-01-24T22:10:31.958Z,-4.0271
2019-01-24T22:13:59.846Z,-4.017029
2019-01-24T22:17:27.732Z,-4.067383
2019-01-24T22:20:55.920Z,-4.067383
2019-01-24T22:24:23.508Z,-4.017029
2019-01-24T22:27:51.405Z,-4.017029
2019-01-24T22:31:20.288Z,-4.0271
2019-01-24T22:34:48.162Z,-4.047241
2019-01-24T22:38:16.053Z,-4.087524
2019-01-24T22:41:43.949Z,-4.097595
2019-01-24T22:45:11.824Z,-4.137878
2019-01-24T22:48:39.716Z,-4.137878
2019-01-24T22:52:07.608Z,-4.147949
2019-01-24T22:55:35.490Z,-4.117737
2019-01-24T22:59:03.383Z,-4.067383
